Time;durP1;ratioP1;P1;durP2;ratioP2;P2;SDS_P1;SDS_P2;PMS_P1;PMS_P2;Temp;Humidity;BMP_temperature;BMP_pressure;BME280_temperature;BME280_humidity;BME280_pressure;Samples;Min_cycle;Max_cycle;Signal;HPM_P1;HPM_P2
2022/01/09 00:00:18;;;;;;;5.93;4.63;;;5.30;99.90;;;;;;5107486;28;20051;-68
2022/01/09 00:02:44;;;;;;;4.60;4.20;;;5.40;99.90;;;;;;5109578;28;20023;-68
2022/01/09 00:05:12;;;;;;;6.13;5.57;;;5.30;99.90;;;;;;5109294;28;20180;-68
2022/01/09 00:07:38;;;;;;;5.67;5.17;;;5.50;99.90;;;;;;5110555;28;20023;-68
2022/01/09 00:10:06;;;;;;;6.73;6.03;;;5.50;99.90;;;;;;5110904;28;20380;-68
2022/01/09 00:12:32;;;;;;;5.67;5.03;;;5.20;99.90;;;;;;5110485;28;20499;-68
2022/01/09 00:14:58;;;;;;;6.03;5.50;;;5.30;99.90;;;;;;5111255;28;20020;-68
2022/01/09 00:17:24;;;;;;;6.43;5.83;;;;;;;;;;5109828;28;20030;-68
2022/01/09 00:19:50;;;;;;;6.10;5.50;;;;;;;;;;5111264;28;20028;-68
2022/01/09 00:22:19;;;;;;;6.67;5.73;;;5.30;99.90;;;;;;5110556;28;20036;-68
2022/01/09 00:24:44;;;;;;;5.90;5.30;;;5.30;99.90;;;;;;5110604;28;20057;-68
2022/01/09 00:27:10;;;;;;;8.17;5.70;;;5.30;99.90;;;;;;5110689;28;20020;-68
2022/01/09 00:29:36;;;;;;;5.57;4.93;;;;;;;;;;5110062;28;20551;-68
2022/01/09 00:32:02;;;;;;;5.90;5.30;;;;;;;;;;5110605;28;20024;-68
2022/01/09 00:34:27;;;;;;;7.23;6.10;;;5.40;99.90;;;;;;5110037;28;20028;-68
2022/01/09 00:36:53;;;;;;;5.53;5.00;;;5.30;99.90;;;;;;5110672;28;20469;-68
2022/01/09 00:39:19;;;;;;;5.80;5.30;;;;;;;;;;5110463;28;20039;-68
2022/01/09 00:41:44;;;;;;;6.13;5.53;;;5.30;99.90;;;;;;5110092;28;20027;-68
2022/01/09 00:44:10;;;;;;;7.33;5.83;;;5.20;99.90;;;;;;5110549;28;20032;-68
2022/01/09 00:46:35;;;;;;;5.43;4.93;;;5.40;99.90;;;;;;5109580;28;20061;-68
2022/01/09 00:49:02;;;;;;;5.63;5.13;;;5.30;99.90;;;;;;5110714;28;20030;-68
2022/01/09 00:51:28;;;;;;;5.80;5.20;;;5.30;99.90;;;;;;5108401;28;20031;-68
2022/01/09 00:53:54;;;;;;;5.97;5.00;;;;;;;;;;5110313;28;20027;-68
2022/01/09 00:56:20;;;;;;;7.40;5.97;;;5.40;99.90;;;;;;5110169;28;20028;-68
2022/01/09 00:58:45;;;;;;;6.87;5.87;;;5.40;99.90;;;;;;5109911;28;20142;-68
2022/01/09 01:01:11;;;;;;;6.30;5.03;;;;;;;;;;5109746;28;20020;-68
2022/01/09 01:03:37;;;;;;;7.03;6.03;;;5.20;99.90;;;;;;5109718;28;20084;-68
2022/01/09 01:06:02;;;;;;;5.40;4.90;;;5.20;99.90;;;;;;5110316;28;20046;-68
2022/01/09 01:08:27;;;;;;;5.43;4.93;;;5.30;99.90;;;;;;5109006;28;20436;-68
2022/01/09 01:10:53;;;;;;;5.57;4.97;;;4.70;99.90;;;;;;5109858;28;20027;-68
2022/01/09 01:13:19;;;;;;;6.13;5.07;;;;;;;;;;5098786;28;20031;-69
2022/01/09 01:15:45;;;;;;;8.17;6.67;;;5.40;99.90;;;;;;5108095;28;20130;-70
2022/01/09 01:18:10;;;;;;;8.10;6.57;;;5.50;99.90;;;;;;5108924;28;20150;-68
2022/01/09 01:20:36;;;;;;;7.80;6.57;;;5.40;99.90;;;;;;5108325;28;20026;-68
2022/01/09 01:23:02;;;;;;;9.77;6.63;;;5.10;99.90;;;;;;5104978;28;20016;-68
2022/01/09 01:25:28;;;;;;;5.63;5.03;;;;;;;;;;5088398;28;20032;-68
2022/01/09 01:27:54;;;;;;;6.87;5.03;;;5.40;99.90;;;;;;5089176;28;20039;-68
2022/01/09 01:30:20;;;;;;;8.47;3.30;;;5.60;99.90;;;;;;5087160;28;20032;-68
2022/01/09 01:32:46;;;;;;;17.53;4.30;;;;;;;;;;5087392;28;20093;-68
2022/01/09 01:35:12;;;;;;;10.90;2.90;;;5.50;99.90;;;;;;5089034;28;20089;-71
2022/01/09 01:37:41;;;;;;;15.33;2.53;;;5.70;99.90;;;;;;5089193;28;20041;-69
2022/01/09 01:40:10;;;;;;;9.30;2.53;;;5.80;99.90;;;;;;5087583;28;20028;-69
2022/01/09 01:42:36;;;;;;;7.93;2.60;;;5.80;99.90;;;;;;5087833;28;20450;-69
2022/01/09 01:45:02;;;;;;;11.03;2.57;;;6.00;99.90;;;;;;5089126;28;20122;-69
2022/01/09 01:47:28;;;;;;;15.77;2.60;;;6.00;99.90;;;;;;5088281;28;20035;-69
2022/01/09 01:49:53;;;;;;;8.20;1.93;;;5.80;99.90;;;;;;5088828;28;20023;-69
2022/01/09 01:52:28;;;;;;;12.13;2.87;;;5.80;99.90;;;;;;5088285;28;20031;-68
2022/01/09 01:54:54;;;;;;;25.63;3.67;;;5.80;99.90;;;;;;5092760;27;20024;-69
2022/01/09 01:57:20;;;;;;;13.27;2.83;;;5.80;99.90;;;;;;5091670;28;20384;-69
2022/01/09 01:59:45;;;;;;;16.73;2.17;;;5.90;99.90;;;;;;5088589;28;20393;-69
2022/01/09 02:02:11;;;;;;;14.23;2.03;;;;;;;;;;5088970;28;20036;-68
2022/01/09 02:04:37;;;;;;;15.03;4.00;;;5.80;99.90;;;;;;5092274;28;20020;-68
2022/01/09 02:07:03;;;;;;;15.00;2.97;;;5.90;99.90;;;;;;5088887;28;20024;-68
2022/01/09 02:09:29;;;;;;;12.53;2.10;;;5.90;99.90;;;;;;5087718;28;20107;-68
2022/01/09 02:11:55;;;;;;;18.87;2.80;;;;;;;;;;5088699;28;20102;-68
2022/01/09 02:14:21;;;;;;;20.80;5.73;;;;;;;;;;5088478;28;20028;-67
2022/01/09 02:16:49;;;;;;;21.80;3.70;;;6.00;99.90;;;;;;5088381;28;20097;-68
2022/01/09 02:19:16;;;;;;;24.20;6.10;;;5.70;99.90;;;;;;5105865;27;20066;-67
2022/01/09 02:21:44;;;;;;;40.27;6.03;;;6.00;99.90;;;;;;5105884;28;20030;-68
2022/01/09 02:24:10;;;;;;;37.67;7.50;;;6.20;99.90;;;;;;5087863;28;20130;-68
2022/01/09 02:26:36;;;;;;;39.50;6.20;;;;;;;;;;5087532;28;20202;-67
2022/01/09 02:29:01;;;;;;;36.20;6.70;;;;;;;;;;5088557;28;20573;-68
2022/01/09 02:31:27;;;;;;;44.57;7.20;;;6.20;99.90;;;;;;5087647;28;20020;-67
2022/01/09 02:33:52;;;;;;;40.83;7.87;;;6.10;99.90;;;;;;5101423;28;20034;-67
2022/01/09 02:36:18;;;;;;;37.27;6.43;;;6.40;99.90;;;;;;5108262;28;20023;-67
2022/01/09 02:38:44;;;;;;;34.97;7.37;;;;;;;;;;5107733;28;20059;-67
2022/01/09 02:41:09;;;;;;;33.63;5.20;;;6.10;99.90;;;;;;5108052;28;20468;-67
2022/01/09 02:43:35;;;;;;;37.63;6.70;;;6.30;99.90;;;;;;5108185;28;20031;-68
2022/01/09 02:48:46;;;;;;;39.03;6.20;;;;;;;;;;5108416;28;20175;-67
2022/01/09 02:51:15;;;;;;;40.10;6.50;;;6.30;99.90;;;;;;5108429;28;20016;-68
2022/01/09 02:53:44;;;;;;;40.27;6.77;;;6.10;99.90;;;;;;5107818;28;20072;-67
2022/01/09 02:56:10;;;;;;;31.40;5.43;;;6.30;99.90;;;;;;5107692;28;20028;-67
2022/01/09 02:58:37;;;;;;;32.00;6.90;;;6.20;99.90;;;;;;5107952;28;20043;-67
2022/01/09 03:01:05;;;;;;;38.30;7.97;;;6.20;99.90;;;;;;5103843;28;20012;-67
2022/01/09 03:03:31;;;;;;;33.00;5.37;;;;;;;;;;5087464;28;20515;-67
2022/01/09 03:05:56;;;;;;;32.67;6.03;;;6.20;99.90;;;;;;5088130;28;20173;-67
2022/01/09 03:08:22;;;;;;;34.13;5.37;;;;;;;;;;5093972;28;20039;-67
2022/01/09 03:10:48;;;;;;;31.23;6.57;;;6.10;99.90;;;;;;5094871;28;20028;-67
2022/01/09 03:13:14;;;;;;;29.53;5.23;;;;;;;;;;5087981;28;20024;-67
2022/01/09 03:15:40;;;;;;;27.47;5.93;;;6.80;99.90;;;;;;5087698;28;20035;-67
2022/01/09 03:18:05;;;;;;;29.10;6.13;;;6.20;99.90;;;;;;5088056;28;20078;-67
2022/01/09 03:20:31;;;;;;;33.40;4.57;;;6.20;99.90;;;;;;5087345;28;20111;-67
2022/01/09 03:22:57;;;;;;;37.47;5.37;;;6.20;99.90;;;;;;5087800;28;20063;-67
2022/01/09 03:25:25;;;;;;;35.93;5.50;;;6.10;99.90;;;;;;5086606;28;20095;-67
2022/01/09 03:27:51;;;;;;;17.90;4.77;;;6.30;99.90;;;;;;5087851;28;20032;-67
2022/01/09 03:30:19;;;;;;;25.37;5.50;;;6.30;99.90;;;;;;5087810;28;20036;-67
2022/01/09 03:32:46;;;;;;;28.93;7.50;;;6.20;99.90;;;;;;5094259;28;20035;-67
2022/01/09 03:35:15;;;;;;;21.47;4.67;;;6.20;99.90;;;;;;5108128;28;20073;-67
2022/01/09 03:37:43;;;;;;;37.30;7.00;;;6.30;99.90;;;;;;5109925;28;20070;-67
2022/01/09 03:40:11;;;;;;;32.53;6.03;;;6.20;99.90;;;;;;5111504;28;20028;-67
2022/01/09 03:42:37;;;;;;;31.40;6.13;;;6.70;99.90;;;;;;5111262;28;20430;-67
2022/01/09 03:45:04;;;;;;;36.70;5.83;;;5.00;99.90;;;;;;5110264;28;20075;-67
2022/01/09 03:47:30;;;;;;;33.80;4.93;;;6.20;99.90;;;;;;5110355;28;20034;-68
2022/01/09 03:49:56;;;;;;;26.77;4.43;;;;;;;;;;5111333;28;20098;-68
2022/01/09 03:52:27;;;;;;;26.47;5.17;;;;;;;;;;5110728;28;20035;-68
2022/01/09 03:54:53;;;;;;;24.37;4.83;;;;;;;;;;5110941;28;20015;-68
2022/01/09 03:57:19;;;;;;;29.97;4.57;;;;;;;;;;5110812;28;20043;-68
2022/01/09 03:59:45;;;;;;;23.07;3.80;;;;;;;;;;5110909;28;20058;-68
2022/01/09 04:02:10;;;;;;;31.93;5.10;;;6.40;99.90;;;;;;5109876;28;20020;-68
2022/01/09 04:04:37;;;;;;;23.13;4.03;;;6.20;99.90;;;;;;5111024;28;20392;-68
2022/01/09 04:07:02;;;;;;;22.93;4.90;;;6.20;99.90;;;;;;5110875;27;20031;-68
2022/01/09 04:09:38;;;;;;;20.30;4.47;;;;;;;;;;5110152;28;20173;-68
2022/01/09 04:12:08;;;;;;;18.67;4.10;;;6.10;99.90;;;;;;5111569;28;20012;-68
2022/01/09 04:14:34;;;;;;;28.37;5.53;;;6.10;99.90;;;;;;5111054;28;20096;-68
2022/01/09 04:17:01;;;;;;;25.77;4.73;;;;;;;;;;5111388;28;20032;-68
2022/01/09 04:19:27;;;;;;;20.40;4.83;;;;;;;;;;5108762;28;20561;-68
2022/01/09 04:21:53;;;;;;;20.73;4.87;;;6.20;99.90;;;;;;5109985;28;20027;-68
2022/01/09 04:24:18;;;;;;;24.13;4.97;;;6.10;99.90;;;;;;5110577;28;20023;-68
2022/01/09 04:26:43;;;;;;;23.17;4.10;;;6.20;99.90;;;;;;5110600;28;20036;-68
2022/01/09 04:29:09;;;;;;;23.67;3.77;;;6.20;99.90;;;;;;5109708;28;20107;-68
2022/01/09 04:31:35;;;;;;;22.50;3.97;;;;;;;;;;5110424;28;20066;-68
2022/01/09 04:34:00;;;;;;;22.90;4.10;;;6.00;99.90;;;;;;5110673;28;20035;-68
2022/01/09 04:36:26;;;;;;;23.87;4.67;;;6.00;99.90;;;;;;5110227;28;20031;-68
2022/01/09 04:38:53;;;;;;;30.40;4.57;;;6.10;99.90;;;;;;5110292;28;20043;-68
2022/01/09 04:41:19;;;;;;;23.20;4.20;;;6.10;99.90;;;;;;5110607;28;20016;-68
2022/01/09 04:43:46;;;;;;;21.30;2.90;;;;;;;;;;5110554;28;20483;-69
2022/01/09 04:46:18;;;;;;;19.47;3.93;;;6.10;99.90;;;;;;5110813;28;20024;-68
2022/01/09 04:48:45;;;;;;;20.03;4.10;;;;;;;;;;5109842;28;20855;-68
2022/01/09 04:51:13;;;;;;;22.90;3.80;;;6.30;99.90;;;;;;5108678;28;20027;-68
2022/01/09 04:53:39;;;;;;;21.20;4.00;;;6.10;99.90;;;;;;5110062;28;20077;-68
2022/01/09 04:56:04;;;;;;;29.93;3.83;;;6.10;99.90;;;;;;5110663;28;20361;-68
2022/01/09 04:58:30;;;;;;;23.43;4.00;;;;;;;;;;5108313;28;20448;-68
2022/01/09 05:00:56;;;;;;;22.63;3.37;;;6.00;99.90;;;;;;5110790;28;20046;-68
2022/01/09 05:03:22;;;;;;;16.47;3.73;;;;;;;;;;5109854;28;20461;-68
2022/01/09 05:05:48;;;;;;;16.97;3.27;;;5.90;99.90;;;;;;5110108;28;20028;-68
2022/01/09 05:08:14;;;;;;;16.37;3.57;;;;;;;;;;5110254;28;20028;-68
2022/01/09 05:10:40;;;;;;;18.33;3.37;;;;;;;;;;5109769;28;20051;-68
2022/01/09 05:13:06;;;;;;;16.83;3.30;;;5.90;99.90;;;;;;5110291;28;20373;-68
2022/01/09 05:15:31;;;;;;;25.07;3.90;;;5.90;99.90;;;;;;5109466;28;20030;-68
2022/01/09 05:18:00;;;;;;;19.60;3.43;;;;;;;;;;5110043;28;20044;-68
2022/01/09 05:20:26;;;;;;;20.43;3.73;;;;;;;;;;5108898;28;20047;-68
2022/01/09 05:22:52;;;;;;;17.10;3.00;;;5.80;99.90;;;;;;5110040;28;20059;-68
2022/01/09 05:25:18;;;;;;;18.10;3.33;;;5.70;99.90;;;;;;5108295;28;20054;-68
2022/01/09 05:27:44;;;;;;;13.53;3.37;;;;;;;;;;5108196;28;20039;-68
2022/01/09 05:30:10;;;;;;;18.70;3.23;;;5.60;99.90;;;;;;5109868;28;20019;-68
2022/01/09 05:32:36;;;;;;;24.67;4.17;;;;;;;;;;5109002;28;20115;-68
2022/01/09 05:35:03;;;;;;;14.53;3.10;;;5.60;99.90;;;;;;5109368;28;20023;-68
2022/01/09 05:37:28;;;;;;;17.87;3.30;;;5.60;99.90;;;;;;5108754;28;20066;-68
2022/01/09 05:39:54;;;;;;;17.70;3.97;;;5.50;99.90;;;;;;5108065;28;20473;-68
2022/01/09 05:42:19;;;;;;;12.93;4.40;;;5.50;99.90;;;;;;5109501;28;20059;-68
2022/01/09 05:44:46;;;;;;;20.20;3.63;;;5.50;99.90;;;;;;5109067;28;20480;-68
2022/01/09 05:47:12;;;;;;;9.97;2.03;;;5.60;99.90;;;;;;5109199;28;20016;-68
2022/01/09 05:49:37;;;;;;;16.10;2.60;;;5.60;99.90;;;;;;5108111;28;20050;-68
2022/01/09 05:52:03;;;;;;;20.87;3.23;;;5.50;99.90;;;;;;5109417;28;20357;-68
2022/01/09 05:54:30;;;;;;;13.47;2.70;;;5.60;99.90;;;;;;5108458;28;20027;-68
2022/01/09 05:56:55;;;;;;;22.30;4.27;;;5.50;99.90;;;;;;5109257;28;20095;-68
2022/01/09 05:59:21;;;;;;;16.87;4.47;;;5.60;99.90;;;;;;5108260;28;20111;-68
2022/01/09 06:01:47;;;;;;;21.60;2.87;;;5.80;99.90;;;;;;5108942;28;20019;-68
2022/01/09 06:04:12;;;;;;;18.17;3.10;;;5.60;99.90;;;;;;5108209;28;20102;-68
2022/01/09 06:06:38;;;;;;;16.97;3.07;;;;;;;;;;5108594;28;20020;-68
2022/01/09 06:09:04;;;;;;;23.57;4.53;;;5.60;99.90;;;;;;5109045;28;20332;-68
2022/01/09 06:11:30;;;;;;;29.17;3.73;;;;;;;;;;5108312;28;20023;-68
2022/01/09 06:13:56;;;;;;;22.53;3.80;;;5.70;99.90;;;;;;5107618;28;20038;-68
2022/01/09 06:16:24;;;;;;;17.43;2.97;;;;;;;;;;5108641;28;20027;-68
2022/01/09 06:18:50;;;;;;;18.47;2.73;;;;;;;;;;5108569;28;20040;-68
2022/01/09 06:21:15;;;;;;;18.47;3.73;;;;;;;;;;5108293;28;20534;-68
2022/01/09 06:23:41;;;;;;;14.00;3.27;;;5.30;99.90;;;;;;5108367;28;20552;-68
2022/01/09 06:26:07;;;;;;;22.47;3.67;;;;;;;;;;5108763;28;20383;-68
2022/01/09 06:28:33;;;;;;;20.97;2.97;;;5.30;99.90;;;;;;5108068;28;20049;-68
2022/01/09 06:30:58;;;;;;;10.03;1.93;;;5.20;99.90;;;;;;5108777;28;20119;-68
2022/01/09 06:33:24;;;;;;;9.97;1.70;;;;;;;;;;5107450;28;20126;-68
2022/01/09 06:35:50;;;;;;;10.20;2.03;;;;;;;;;;5108663;28;20083;-68
2022/01/09 06:38:15;;;;;;;12.47;2.10;;;5.40;99.90;;;;;;5108155;28;20665;-68
2022/01/09 06:40:41;;;;;;;23.53;3.33;;;5.30;99.90;;;;;;5107770;28;20400;-68
2022/01/09 06:43:07;;;;;;;17.97;3.13;;;5.30;99.90;;;;;;5108358;28;20088;-68
2022/01/09 06:45:33;;;;;;;13.13;3.03;;;5.20;99.90;;;;;;5107989;28;20433;-68
2022/01/09 06:47:59;;;;;;;18.67;2.70;;;5.20;99.90;;;;;;5108095;28;20023;-69
2022/01/09 06:50:26;;;;;;;17.00;3.17;;;5.20;99.90;;;;;;5107698;28;20035;-68
2022/01/09 06:52:52;;;;;;;11.83;2.60;;;5.10;99.90;;;;;;5099289;28;20041;-68
2022/01/09 06:55:18;;;;;;;8.27;2.20;;;5.00;99.90;;;;;;5103116;28;20465;-68
2022/01/09 06:57:44;;;;;;;11.90;2.23;;;4.80;99.90;;;;;;5087758;28;20028;-68
2022/01/09 07:00:12;;;;;;;10.73;1.93;;;5.40;99.90;;;;;;5087962;28;20032;-68
2022/01/09 07:02:37;;;;;;;13.17;2.07;;;4.70;99.90;;;;;;5085821;28;20068;-68
2022/01/09 07:05:04;;;;;;;12.43;2.10;;;4.80;99.90;;;;;;5088089;28;20072;-68
2022/01/09 07:07:30;;;;;;;10.30;2.27;;;;;;;;;;5087485;28;20032;-68
2022/01/09 07:09:56;;;;;;;7.80;2.20;;;5.00;99.90;;;;;;5093959;28;20121;-68
2022/01/09 07:12:22;;;;;;;14.80;2.67;;;;;;;;;;5091785;28;20036;-68
2022/01/09 07:14:47;;;;;;;16.07;2.93;;;5.00;99.90;;;;;;5092245;28;20787;-68
2022/01/09 07:17:13;;;;;;;11.23;2.30;;;;;;;;;;5091521;28;20105;-68
2022/01/09 07:19:39;;;;;;;18.27;2.70;;;4.90;99.90;;;;;;5089969;28;20085;-68
2022/01/09 07:22:05;;;;;;;18.17;2.90;;;;;;;;;;5092227;28;20024;-68
2022/01/09 07:24:32;;;;;;;9.17;2.53;;;4.80;99.90;;;;;;5090714;28;20107;-68
2022/01/09 07:26:57;;;;;;;16.70;2.60;;;4.80;99.90;;;;;;5099340;28;20449;-68
2022/01/09 07:29:23;;;;;;;12.23;2.17;;;;;;;;;;5111282;28;20031;-68
2022/01/09 07:31:51;;;;;;;12.00;3.37;;;4.80;99.90;;;;;;5111829;28;20028;-68
2022/01/09 07:34:20;;;;;;;16.27;2.60;;;5.10;99.90;;;;;;5111799;27;20020;-68
2022/01/09 07:36:46;;;;;;;12.40;2.33;;;4.80;99.90;;;;;;5111556;28;20495;-68
2022/01/09 07:39:12;;;;;;;12.77;2.50;;;4.80;99.90;;;;;;5111888;28;20464;-68
2022/01/09 07:41:38;;;;;;;11.50;2.40;;;4.90;99.90;;;;;;5111442;28;20023;-68
2022/01/09 07:44:04;;;;;;;20.63;3.30;;;4.70;99.90;;;;;;5111985;28;20024;-69
2022/01/09 07:46:29;;;;;;;11.00;2.53;;;4.70;99.90;;;;;;5110532;28;20028;-68
2022/01/09 07:48:55;;;;;;;13.80;2.90;;;4.60;99.90;;;;;;5111583;28;20460;-68
2022/01/09 07:51:21;;;;;;;12.43;2.33;;;;;;;;;;5111539;28;20093;-68
2022/01/09 07:53:46;;;;;;;11.93;2.70;;;4.50;99.90;;;;;;5111526;28;20377;-68
2022/01/09 07:56:12;;;;;;;28.57;3.23;;;4.60;99.90;;;;;;5111520;28;20031;-68
2022/01/09 07:58:38;;;;;;;10.13;3.03;;;;;;;;;;5110982;27;20063;-69
2022/01/09 08:01:04;;;;;;;9.03;1.60;;;;;;;;;;5110830;28;20024;-68
2022/01/09 08:03:30;;;;;;;9.77;1.93;;;4.30;99.90;;;;;;5109260;28;20518;-68
2022/01/09 08:05:56;;;;;;;13.30;1.60;;;4.40;99.90;;;;;;5111606;28;20472;-68
2022/01/09 08:08:22;;;;;;;16.83;2.40;;;;;;;;;;5111127;28;20027;-68
2022/01/09 08:10:47;;;;;;;8.87;1.67;;;4.10;99.90;;;;;;5111420;28;20031;-68
2022/01/09 08:13:13;;;;;;;10.53;1.93;;;;;;;;;;5111346;28;20028;-68
2022/01/09 08:15:39;;;;;;;12.73;2.23;;;;;;;;;;5110180;28;20035;-68
2022/01/09 08:18:05;;;;;;;10.93;2.03;;;;;;;;;;5111182;28;20028;-68
2022/01/09 08:20:31;;;;;;;15.53;2.20;;;;;;;;;;5110450;28;20059;-68
2022/01/09 08:22:57;;;;;;;10.13;1.93;;;4.30;99.90;;;;;;5110474;28;20023;-68
2022/01/09 08:25:23;;;;;;;8.73;2.47;;;;;;;;;;5110591;28;20046;-68
2022/01/09 08:27:50;;;;;;;8.33;2.13;;;4.50;99.90;;;;;;5111284;28;20024;-68
2022/01/09 08:30:18;;;;;;;10.93;2.33;;;4.50;99.90;;;;;;5108643;28;20253;-68
2022/01/09 08:32:44;;;;;;;11.87;3.10;;;4.40;99.90;;;;;;5110616;28;20073;-68
2022/01/09 08:35:10;;;;;;;15.70;2.33;;;4.60;99.90;;;;;;5110819;28;20058;-68
2022/01/09 08:37:36;;;;;;;14.87;3.17;;;4.80;99.90;;;;;;5110112;28;20056;-68
2022/01/09 08:40:02;;;;;;;9.50;1.73;;;4.80;99.90;;;;;;5110705;28;20031;-68
2022/01/09 08:42:28;;;;;;;11.80;2.53;;;4.70;99.90;;;;;;5108640;28;20028;-68
2022/01/09 08:44:53;;;;;;;12.13;2.50;;;4.80;99.90;;;;;;5110354;28;20487;-68
2022/01/09 08:47:19;;;;;;;11.97;2.57;;;4.70;99.90;;;;;;5110270;28;20027;-68
2022/01/09 08:49:44;;;;;;;15.17;4.50;;;4.70;99.90;;;;;;5110192;28;20431;-68
2022/01/09 08:52:10;;;;;;;11.70;2.20;;;4.50;99.90;;;;;;5110535;28;20023;-68
2022/01/09 08:54:35;;;;;;;11.77;2.13;;;4.50;99.90;;;;;;5109617;28;20035;-68
2022/01/09 08:57:01;;;;;;;13.67;2.57;;;4.60;99.90;;;;;;5110449;28;20027;-68
2022/01/09 08:59:27;;;;;;;14.67;2.27;;;;;;;;;;5107665;28;20043;-67
2022/01/09 09:01:53;;;;;;;9.20;2.33;;;4.60;99.90;;;;;;5110213;28;20440;-67
2022/01/09 09:04:19;;;;;;;9.33;1.77;;;4.60;99.90;;;;;;5109902;28;20443;-67
2022/01/09 09:06:45;;;;;;;9.00;2.13;;;4.60;99.90;;;;;;5109837;28;20091;-67
2022/01/09 09:09:11;;;;;;;18.40;2.87;;;4.70;99.90;;;;;;5110177;28;20361;-67
2022/01/09 09:11:37;;;;;;;11.27;2.37;;;5.10;99.90;;;;;;5109493;28;20067;-69
2022/01/09 09:14:03;;;;;;;9.73;2.93;;;4.80;99.90;;;;;;5109910;28;20112;-67
2022/01/09 09:16:32;;;;;;;12.37;2.77;;;5.00;99.90;;;;;;5111128;27;20019;-67
2022/01/09 09:18:58;;;;;;;10.67;2.50;;;4.90;99.90;;;;;;5127500;27;20066;-67
2022/01/09 09:21:24;;;;;;;11.90;2.17;;;;;;;;;;5129793;27;20055;-67
2022/01/09 09:23:50;;;;;;;13.10;1.87;;;;;;;;;;5130594;27;20023;-67
2022/01/09 09:26:21;;;;;;;8.53;2.17;;;;;;;;;;5113852;27;20548;-67
2022/01/09 09:28:47;;;;;;;16.23;2.50;;;5.40;99.90;;;;;;5107745;28;20023;-67
2022/01/09 09:31:13;;;;;;;11.20;1.60;;;;;;;;;;5108540;28;20380;-67
2022/01/09 09:33:39;;;;;;;17.90;2.93;;;;;;;;;;5106862;27;20375;-67
2022/01/09 09:36:05;;;;;;;13.40;3.17;;;5.80;99.90;;;;;;5110371;27;20042;-67
2022/01/09 09:38:31;;;;;;;11.37;2.23;;;5.60;99.90;;;;;;5110089;27;20103;-67
2022/01/09 09:40:57;;;;;;;17.07;2.57;;;5.80;99.90;;;;;;5106751;28;20363;-67
2022/01/09 09:43:23;;;;;;;8.20;2.97;;;5.90;99.90;;;;;;5106991;28;20036;-68
2022/01/09 09:45:51;;;;;;;10.13;2.87;;;5.60;99.90;;;;;;5108269;28;20049;-67
2022/01/09 09:48:17;;;;;;;14.03;2.63;;;;;;;;;;5108037;28;20054;-67
2022/01/09 09:50:42;;;;;;;12.50;3.17;;;5.90;99.90;;;;;;5107745;28;20738;-67
2022/01/09 09:53:08;;;;;;;19.47;3.17;;;;;;;;;;5107954;28;20035;-67
2022/01/09 09:55:34;;;;;;;16.53;2.87;;;;;;;;;;5106194;28;20406;-67
2022/01/09 09:58:00;;;;;;;11.53;3.80;;;;;;;;;;5107675;28;20019;-67
2022/01/09 10:00:26;;;;;;;8.97;2.53;;;5.60;99.90;;;;;;5107360;28;20472;-67
2022/01/09 10:02:59;;;;;;;10.63;3.37;;;4.90;99.90;;;;;;5107537;28;20482;-67
2022/01/09 10:05:27;;;;;;;8.63;2.22;;;5.70;99.90;;;;;;5107672;28;20130;-66
2022/01/09 10:07:55;;;;;;;13.03;2.87;;;5.70;99.90;;;;;;5107451;28;20038;-67
2022/01/09 10:10:29;;;;;;;16.73;2.90;;;5.80;99.90;;;;;;5107010;28;20036;-67
2022/01/09 10:13:05;;;;;;;15.23;3.50;;;5.70;99.90;;;;;;5104948;28;20033;-66
2022/01/09 10:15:41;;;;;;;12.73;3.93;;;5.60;99.90;;;;;;5087795;28;20032;-67
2022/01/09 10:18:08;;;;;;;19.00;3.90;;;5.50;99.90;;;;;;5087616;28;20032;-66
2022/01/09 10:20:34;;;;;;;18.13;2.90;;;;;;;;;;5086918;28;20089;-66
2022/01/09 10:22:59;;;;;;;16.00;3.37;;;5.50;99.90;;;;;;5087374;28;20621;-66
2022/01/09 10:25:30;;;;;;;23.00;4.87;;;5.60;99.90;;;;;;5086371;28;20031;-66
2022/01/09 10:28:05;;;;;;;11.40;3.07;;;5.80;99.90;;;;;;5087292;28;20035;-67
2022/01/09 10:30:42;;;;;;;14.43;3.17;;;5.80;99.90;;;;;;5089836;28;20134;-67
2022/01/09 10:33:13;;;;;;;14.77;4.23;;;6.00;99.90;;;;;;5088367;28;20372;-67
2022/01/09 10:35:41;;;;;;;17.80;3.30;;;6.00;99.90;;;;;;5087907;28;20016;-67
2022/01/09 10:38:19;;;;;;;11.33;3.07;;;6.10;99.90;;;;;;5088116;28;20135;-67
2022/01/09 10:40:49;;;;;;;15.50;3.17;;;6.20;99.90;;;;;;5087573;28;20062;-67
2022/01/09 10:43:17;;;;;;;9.57;2.27;;;6.20;99.90;;;;;;5094340;28;20031;-68
2022/01/09 10:45:46;;;;;;;13.10;3.20;;;6.40;99.90;;;;;;5089543;28;20074;-67
2022/01/09 10:48:20;;;;;;;9.77;3.07;;;6.50;99.90;;;;;;5097519;28;20020;-67
2022/01/09 10:50:48;;;;;;;12.77;2.80;;;6.40;99.90;;;;;;5088056;28;20103;-68
2022/01/09 10:53:20;;;;;;;15.77;3.70;;;6.30;99.90;;;;;;5100913;28;20030;-67
2022/01/09 10:55:59;;;;;;;8.37;2.73;;;6.30;99.90;;;;;;5090096;28;20405;-67
2022/01/09 10:58:25;;;;;;;11.90;3.60;;;;;;;;;;5106630;28;20859;-68
2022/01/09 11:01:07;;;;;;;13.10;2.83;;;6.50;99.90;;;;;;5101594;28;20157;-67
2022/01/09 11:03:33;;;;;;;10.43;2.80;;;;;;;;;;5101781;28;20031;-68
2022/01/09 11:06:00;;;;;;;16.50;2.97;;;6.50;99.90;;;;;;5089552;28;20054;-69
2022/01/09 11:08:28;;;;;;;12.97;2.83;;;6.50;99.90;;;;;;5087286;28;20032;-68
2022/01/09 11:10:54;;;;;;;14.90;3.93;;;;;;;;;;5095491;28;20076;-67
2022/01/09 11:13:21;;;;;;;18.20;4.00;;;6.30;99.90;;;;;;5114997;28;20023;-67
2022/01/09 11:18:33;;;;;;;9.47;2.40;;;;;;;;;;5128097;28;20046;-69
2022/01/09 11:20:59;;;;;;;13.07;2.63;;;6.30;99.90;;;;;;5128530;28;20114;-69
2022/01/09 11:23:33;;;;;;;9.57;2.23;;;6.10;99.90;;;;;;5127543;28;20121;-69
2022/01/09 11:26:01;;;;;;;11.70;2.30;;;6.40;99.90;;;;;;5128623;27;20023;-69
2022/01/09 11:28:33;;;;;;;13.77;3.20;;;6.20;99.90;;;;;;5107969;28;20043;-69
2022/01/09 11:31:15;;;;;;;9.40;2.30;;;6.10;99.90;;;;;;5107689;28;20106;-69
2022/01/09 11:33:59;;;;;;;13.27;2.37;;;6.10;99.90;;;;;;5110389;28;20028;-68
2022/01/09 11:36:46;;;;;;;15.88;3.05;;;6.30;99.90;;;;;;5118363;28;20042;-68
2022/01/09 11:39:18;;;;;;;16.17;2.30;;;6.10;99.90;;;;;;5127941;28;20071;-68
2022/01/09 11:41:45;;;;;;;10.20;2.13;;;6.20;99.90;;;;;;5124490;27;20028;-68
2022/01/09 11:44:14;;;;;;;9.70;2.07;;;6.10;99.90;;;;;;5106450;28;20027;-69
2022/01/09 11:47:02;;;;;;;9.73;2.50;;;5.90;99.90;;;;;;5107439;28;20023;-68
2022/01/09 11:49:30;;;;;;;10.13;2.67;;;6.10;99.90;;;;;;5107756;28;20027;-68
2022/01/09 11:51:57;;;;;;;10.40;1.90;;;5.80;99.90;;;;;;5107134;28;20024;-68
2022/01/09 11:54:25;;;;;;;8.57;2.03;;;5.90;99.90;;;;;;5107616;28;20080;-68
2022/01/09 11:57:05;;;;;;;13.03;1.87;;;6.00;99.90;;;;;;5107521;28;20739;-68
2022/01/09 11:59:31;;;;;;;10.60;2.40;;;;;;;;;;5110943;28;20040;-68
2022/01/09 12:02:12;;;;;;;7.40;1.67;;;5.50;99.90;;;;;;5116070;27;20376;-68
2022/01/09 12:04:38;;;;;;;11.27;2.10;;;;;;;;;;5111218;28;20072;-68
2022/01/09 12:07:08;;;;;;;12.27;2.37;;;5.90;99.90;;;;;;5110749;28;20454;-68
2022/01/09 12:09:41;;;;;;;15.33;2.67;;;6.00;99.90;;;;;;5110950;28;20111;-69
2022/01/09 12:12:09;;;;;;;9.48;2.33;;;;;;;;;;5111048;28;20059;-68
2022/01/09 12:14:56;;;;;;;10.80;2.17;;;5.90;99.90;;;;;;5111009;28;20023;-68
2022/01/09 12:17:27;;;;;;;18.27;3.53;;;5.60;99.90;;;;;;5111120;28;20073;-68
2022/01/09 12:20:04;;;;;;;15.33;2.50;;;5.90;99.90;;;;;;5110404;28;20131;-69
2022/01/09 12:23:00;;;;;;;9.97;2.83;;;5.80;99.90;;;;;;5109293;28;20129;-68
2022/01/09 12:25:26;;;;;;;8.90;2.30;;;5.80;99.90;;;;;;5129419;27;20425;-68
2022/01/09 12:28:11;;;;;;;12.10;2.93;;;5.80;99.90;;;;;;5130150;27;20032;-68
2022/01/09 12:30:44;;;;;;;15.30;3.20;;;5.70;99.90;;;;;;5130375;27;20015;-68
2022/01/09 12:33:12;;;;;;;13.43;2.30;;;5.80;99.90;;;;;;5111080;27;20139;-68
2022/01/09 12:35:54;;;;;;;8.07;1.90;;;6.00;99.90;;;;;;5110179;28;20403;-69
2022/01/09 12:38:22;;;;;;;10.03;2.83;;;5.80;99.90;;;;;;5116618;27;20067;-69
2022/01/09 12:40:54;;;;;;;8.70;2.33;;;5.80;99.90;;;;;;5121110;27;20030;-69
2022/01/09 12:43:23;;;;;;;11.27;2.97;;;5.90;99.90;;;;;;5129127;27;20432;-68
2022/01/09 12:45:49;;;;;;;11.30;2.50;;;5.70;99.90;;;;;;5117875;27;20126;-69
2022/01/09 12:48:20;;;;;;;11.13;2.20;;;6.10;99.90;;;;;;5117781;27;20454;-68
2022/01/09 12:50:47;;;;;;;8.27;2.37;;;6.20;99.90;;;;;;5120041;27;20073;-68
2022/01/09 12:53:27;;;;;;;10.87;2.27;;;6.20;99.90;;;;;;5116323;27;20022;-69
2022/01/09 12:55:56;;;;;;;14.33;2.53;;;6.20;99.90;;;;;;5116602;27;20088;-69
2022/01/09 12:58:33;;;;;;;13.67;2.00;;;6.40;99.90;;;;;;5119348;27;20031;-68
2022/01/09 13:01:03;;;;;;;18.67;2.57;;;6.30;99.90;;;;;;5119925;27;20019;-69
2022/01/09 13:03:31;;;;;;;13.43;2.50;;;6.20;99.90;;;;;;5118569;27;20016;-68
2022/01/09 13:05:59;;;;;;;10.37;2.23;;;6.30;99.90;;;;;;5119678;27;20019;-68
2022/01/09 13:08:25;;;;;;;9.57;1.87;;;6.20;99.90;;;;;;5118742;27;20080;-68
2022/01/09 13:11:03;;;;;;;14.63;2.70;;;6.30;99.90;;;;;;5118603;27;20016;-68
2022/01/09 13:13:30;;;;;;;15.73;2.83;;;6.30;99.90;;;;;;5118269;27;20024;-68
2022/01/09 13:15:57;;;;;;;12.80;1.83;;;6.20;99.90;;;;;;5119014;27;20042;-69
2022/01/09 13:18:46;;;;;;;18.67;3.23;;;6.40;99.90;;;;;;5119110;27;20540;-68